createdAt,value
2022-08-12T00:02:02.966Z,21.59
2022-08-12T00:04:52.240Z,21.58
2022-08-12T00:07:39.403Z,21.70
2022-08-12T00:10:25.712Z,21.57
2022-08-12T00:13:12.580Z,21.52
2022-08-12T00:16:01.583Z,21.32
2022-08-12T00:18:47.624Z,21.16
2022-08-12T00:21:34.026Z,21.24
2022-08-12T00:24:23.945Z,21.40
2022-08-12T00:27:10.402Z,21.40
2022-08-12T00:29:56.225Z,21.23
2022-08-12T00:32:54.496Z,21.31
2022-08-12T00:35:42.424Z,21.24
2022-08-12T00:38:30.610Z,21.13
2022-08-12T00:41:19.266Z,21.23
2022-08-12T00:43:49.472Z,21.02
2022-08-12T00:46:33.008Z,21.10
2022-08-12T00:49:02.691Z,21.26
2022-08-12T00:51:52.893Z,21.19
2022-08-12T00:54:21.283Z,21.23
2022-08-12T00:56:52.186Z,21.19
2022-08-12T00:59:20.789Z,21.13
2022-08-12T01:02:01.129Z,21.01
2022-08-12T01:04:56.313Z,20.94
2022-08-12T01:07:43.189Z,20.88
2022-08-12T01:10:32.638Z,20.59
2022-08-12T01:13:07.322Z,20.65
2022-08-12T01:15:49.453Z,20.72
2022-08-12T01:18:18.341Z,20.73
2022-08-12T01:20:57.485Z,20.62
2022-08-12T01:23:53.153Z,20.56
2022-08-12T01:26:25.428Z,20.52
2022-08-12T01:28:58.443Z,20.61
2022-08-12T01:31:29.232Z,20.50
2022-08-12T01:34:01.710Z,20.41
2022-08-12T01:36:32.191Z,20.43
2022-08-12T01:39:00.375Z,20.62
2022-08-12T01:41:31.991Z,20.36
2022-08-12T01:44:02.435Z,20.30
2022-08-12T01:46:40.755Z,20.24
2022-08-12T01:49:23.533Z,20.15
2022-08-12T01:52:21.871Z,20.15
2022-08-12T01:54:47.031Z,20.13
2022-08-12T01:57:58.138Z,19.85
2022-08-12T02:00:12.226Z,20.19
2022-08-12T02:02:42.140Z,20.26
2022-08-12T02:05:36.290Z,20.28
2022-08-12T02:08:36.774Z,20.31
2022-08-12T02:11:18.876Z,20.08
2022-08-12T02:14:13.966Z,20.12
2022-08-12T02:17:09.572Z,20.36
2022-08-12T02:19:49.549Z,20.47
2022-08-12T02:22:29.252Z,20.54
2022-08-12T02:25:03.386Z,20.41
2022-08-12T02:27:36.138Z,20.13
2022-08-12T02:30:08.831Z,20.21
2022-08-12T02:32:40.318Z,20.23
2022-08-12T02:35:11.332Z,20.13
2022-08-12T02:37:41.302Z,20.20
2022-08-12T02:40:12.943Z,20.06
2022-08-12T02:42:50.012Z,20.02
2022-08-12T02:45:26.497Z,19.96
2022-08-12T02:48:00.706Z,19.96
2022-08-12T02:50:30.314Z,19.91
2022-08-12T02:52:59.512Z,19.82
2022-08-12T02:55:34.878Z,19.86
2022-08-12T02:58:11.937Z,19.62
2022-08-12T03:00:43.441Z,19.70
2022-08-12T03:03:13.670Z,19.86
2022-08-12T03:05:46.608Z,20.01
2022-08-12T03:08:31.585Z,20.04
2022-08-12T03:11:06.169Z,20.05
2022-08-12T03:13:43.063Z,20.17
2022-08-12T03:16:13.939Z,19.98
2022-08-12T03:18:45.746Z,19.90
2022-08-12T03:21:17.241Z,19.87
2022-08-12T03:24:07.053Z,19.89
2022-08-12T03:26:36.647Z,19.98
2022-08-12T03:29:06.926Z,19.99
2022-08-12T03:31:36.983Z,20.14
2022-08-12T03:34:08.182Z,20.06
2022-08-12T03:36:38.403Z,19.86
2022-08-12T03:39:35.810Z,20.03
2022-08-12T03:42:23.170Z,20.01
2022-08-12T03:45:16.436Z,19.85
2022-08-12T03:48:08.522Z,19.99
2022-08-12T03:50:56.102Z,19.81
2022-08-12T03:53:45.501Z,19.83
2022-08-12T03:56:32.043Z,19.81
2022-08-12T03:59:18.824Z,19.83
2022-08-12T04:01:52.594Z,19.86
2022-08-12T04:04:23.461Z,19.88
2022-08-12T04:06:52.166Z,19.75
2022-08-12T04:09:22.321Z,19.72
2022-08-12T04:12:08.773Z,19.68
2022-08-12T04:14:37.710Z,19.67
2022-08-12T04:17:06.149Z,19.53
2022-08-12T04:19:35.858Z,19.40
2022-08-12T04:22:04.299Z,19.57
2022-08-12T04:24:34.941Z,19.81
2022-08-12T04:27:06.169Z,19.61
2022-08-12T04:30:31.590Z,19.68
2022-08-12T04:32:23.309Z,19.36
2022-08-12T04:34:53.505Z,19.76
2022-08-12T04:37:21.955Z,20.02
2022-08-12T04:39:51.223Z,20.54
2022-08-12T04:42:20.152Z,21.22
2022-08-12T04:44:48.822Z,21.99
2022-08-12T04:47:18.087Z,22.80
2022-08-12T04:49:48.092Z,23.27
2022-08-12T04:52:18.173Z,22.41
2022-08-12T04:54:46.555Z,23.21
2022-08-12T04:57:16.004Z,23.76
2022-08-12T04:59:48.300Z,24.06
2022-08-12T05:02:21.102Z,24.20
2022-08-12T05:04:52.802Z,24.97
2022-08-12T05:07:24.293Z,25.42
2022-08-12T05:09:59.191Z,25.44
2022-08-12T05:12:37.846Z,25.40
2022-08-12T05:15:19.020Z,26.00
2022-08-12T05:17:59.797Z,26.26
2022-08-12T05:20:30.825Z,26.45
2022-08-12T05:23:13.393Z,26.45
2022-08-12T05:25:43.179Z,26.41
2022-08-12T05:28:12.914Z,26.30
2022-08-12T05:30:43.421Z,26.30
2022-08-12T05:33:12.768Z,26.11
2022-08-12T05:35:43.183Z,26.46
2022-08-12T05:38:34.477Z,26.26
2022-08-12T05:41:04.670Z,26.58
2022-08-12T05:43:34.583Z,26.33
2022-08-12T05:46:02.916Z,25.74
2022-08-12T05:48:32.530Z,25.53
2022-08-12T05:51:00.875Z,25.01
2022-08-12T05:53:30.589Z,24.89
2022-08-12T05:55:58.901Z,24.73
2022-08-12T05:58:28.010Z,24.01
2022-08-12T06:00:57.042Z,24.23
2022-08-12T06:03:25.591Z,24.08
2022-08-12T06:05:57.127Z,23.93
2022-08-12T06:08:26.477Z,23.53
2022-08-12T06:10:57.199Z,23.34
2022-08-12T06:13:52.647Z,23.38
2022-08-12T06:16:15.608Z,23.62
2022-08-12T06:18:44.207Z,23.49
2022-08-12T06:21:16.023Z,23.45
2022-08-12T06:23:45.831Z,23.96
2022-08-12T06:26:16.718Z,24.02
2022-08-12T06:28:46.087Z,24.02
2022-08-12T06:31:32.137Z,23.98
2022-08-12T06:35:27.016Z,24.19
2022-08-12T06:36:49.460Z,24.39
2022-08-12T06:39:17.876Z,24.15
2022-08-12T06:42:31.684Z,24.22
2022-08-12T06:44:58.820Z,24.17
2022-08-12T06:47:27.266Z,24.48
2022-08-12T06:49:55.579Z,24.72
2022-08-12T06:52:24.902Z,24.72
2022-08-12T06:54:55.378Z,25.27
2022-08-12T06:57:57.865Z,25.21
2022-08-12T07:00:17.067Z,24.76
2022-08-12T07:02:46.716Z,24.99
2022-08-12T07:05:15.126Z,25.06
2022-08-12T07:07:46.428Z,25.75
2022-08-12T07:10:14.757Z,25.53
2022-08-12T07:12:45.313Z,24.94
2022-08-12T07:15:13.687Z,24.77
2022-08-12T07:17:42.056Z,24.53
2022-08-12T07:20:29.630Z,25.13
2022-08-12T07:23:01.739Z,24.88
2022-08-12T07:25:41.116Z,24.91
2022-08-12T07:28:16.073Z,25.01
2022-08-12T07:30:46.803Z,25.24
2022-08-12T07:33:16.809Z,25.48
2022-08-12T07:35:47.880Z,26.17
2022-08-12T07:38:29.684Z,25.99
2022-08-12T07:41:03.195Z,26.33
2022-08-12T07:43:35.556Z,26.43
2022-08-12T07:46:05.748Z,26.65
2022-08-12T07:48:38.258Z,26.46
2022-08-12T07:51:07.147Z,25.90
2022-08-12T07:53:47.728Z,26.52
2022-08-12T07:56:24.857Z,26.55
2022-08-12T07:58:55.348Z,26.56
2022-08-12T08:01:23.720Z,26.65
2022-08-12T08:04:15.130Z,27.39
2022-08-12T08:06:46.834Z,27.15
2022-08-12T08:09:18.260Z,26.73
2022-08-12T08:12:04.135Z,26.37
2022-08-12T08:14:33.837Z,26.78
2022-08-12T08:17:06.617Z,26.18
2022-08-12T08:20:02.781Z,26.25
2022-08-12T08:22:25.742Z,27.32
2022-08-12T08:25:34.241Z,27.05
2022-08-12T08:28:00.335Z,27.72
2022-08-12T08:30:30.904Z,27.77
2022-08-12T08:32:59.421Z,27.11
2022-08-12T08:35:32.844Z,27.75
2022-08-12T08:38:18.585Z,28.07
2022-08-12T08:42:19.188Z,27.97
2022-08-12T08:44:08.001Z,27.69
2022-08-12T08:46:38.182Z,28.09
2022-08-12T08:49:07.167Z,28.09
2022-08-12T08:51:35.621Z,28.27
2022-08-12T08:54:04.152Z,28.52
2022-08-12T08:56:32.544Z,28.76
2022-08-12T08:59:01.132Z,28.65
2022-08-12T09:01:37.991Z,27.93
2022-08-12T09:05:13.646Z,29.15
2022-08-12T09:07:16.894Z,28.39
2022-08-12T09:10:03.527Z,27.86
2022-08-12T09:12:56.368Z,28.15
2022-08-12T09:15:35.778Z,28.61
2022-08-12T09:18:08.934Z,27.98
2022-08-12T09:20:55.498Z,27.79
2022-08-12T09:23:57.124Z,28.42
2022-08-12T09:26:12.256Z,29.10
2022-08-12T09:28:41.111Z,29.78
2022-08-12T09:32:02.955Z,28.43
2022-08-12T09:34:29.259Z,29.46
2022-08-12T09:37:01.101Z,29.40
2022-08-12T09:40:05.758Z,29.34
2022-08-12T09:42:54.108Z,28.57
2022-08-12T09:46:11.358Z,28.76
2022-08-12T09:48:19.743Z,28.56
2022-08-12T09:50:51.922Z,29.24
2022-08-12T09:53:29.220Z,29.79
2022-08-12T09:56:59.580Z,30.10
2022-08-12T09:58:59.721Z,30.51
2022-08-12T10:01:35.546Z,30.17
2022-08-12T10:04:19.711Z,29.96
2022-08-12T10:06:55.246Z,30.20
2022-08-12T10:09:28.542Z,30.31
2022-08-12T10:13:12.256Z,29.34
2022-08-12T10:16:01.743Z,29.54
2022-08-12T10:18:10.616Z,29.85
2022-08-12T10:20:39.601Z,29.83
2022-08-12T10:23:08.243Z,29.66
2022-08-12T10:26:33.943Z,29.57
2022-08-12T10:30:03.331Z,29.63
2022-08-12T10:32:20.829Z,29.73
2022-08-12T10:34:53.188Z,29.70
2022-08-12T10:38:34.304Z,29.40
2022-08-12T10:40:20.046Z,29.40
2022-08-12T10:43:09.089Z,29.48
2022-08-12T10:45:38.450Z,29.91
2022-08-12T10:48:26.441Z,29.66
2022-08-12T10:51:01.539Z,30.00
2022-08-12T10:53:44.007Z,29.48
2022-08-12T10:56:16.066Z,29.00
2022-08-12T10:58:47.844Z,30.28
2022-08-12T11:01:26.041Z,29.36
2022-08-12T11:04:26.473Z,29.41
2022-08-12T11:07:06.014Z,29.81
2022-08-12T11:09:59.789Z,30.20
2022-08-12T11:12:56.222Z,29.18
2022-08-12T11:15:24.169Z,30.03
2022-08-12T11:17:55.609Z,30.11
2022-08-12T11:20:30.993Z,29.82
2022-08-12T11:23:04.316Z,30.64
2022-08-12T11:25:57.381Z,31.24
2022-08-12T11:28:33.837Z,30.86
2022-08-12T11:31:05.413Z,31.28
2022-08-12T11:34:04.320Z,30.99
2022-08-12T11:36:22.443Z,30.82
2022-08-12T11:38:51.433Z,30.16
2022-08-12T11:41:31.092Z,31.19
2022-08-12T11:44:29.131Z,30.78
2022-08-12T11:46:53.265Z,30.22
2022-08-12T11:49:31.199Z,30.27
2022-08-12T11:52:02.791Z,30.31
2022-08-12T11:54:31.178Z,30.54
2022-08-12T11:57:02.332Z,30.47
2022-08-12T12:02:21.742Z,29.85
2022-08-12T12:04:52.740Z,29.41
2022-08-12T12:08:36.620Z,29.22
2022-08-12T12:10:13.001Z,29.79
2022-08-12T12:12:50.122Z,30.37
2022-08-12T12:15:24.647Z,30.32
2022-08-12T12:17:55.987Z,29.92
2022-08-12T12:20:25.996Z,29.70
2022-08-12T12:22:56.215Z,30.64
2022-08-12T12:26:07.602Z,30.28
2022-08-12T12:28:37.173Z,31.30
2022-08-12T12:31:04.252Z,31.12
2022-08-12T12:33:57.427Z,31.16
2022-08-12T12:36:29.244Z,31.11
2022-08-12T12:39:00.281Z,31.64
2022-08-12T12:42:45.097Z,31.56
2022-08-12T12:44:27.529Z,30.79
2022-08-12T12:47:28.757Z,30.62
2022-08-12T12:49:56.263Z,30.71
2022-08-12T12:52:26.784Z,31.73
2022-08-12T12:54:57.521Z,31.37
2022-08-12T12:57:36.412Z,30.69
2022-08-12T13:00:15.872Z,30.39
2022-08-12T13:02:53.607Z,29.99
2022-08-12T13:05:27.813Z,29.59
2022-08-12T13:08:01.141Z,30.71
2022-08-12T13:10:37.003Z,30.44
2022-08-12T13:14:07.579Z,30.55
2022-08-12T13:15:58.995Z,31.85
2022-08-12T13:18:28.831Z,31.39
2022-08-12T13:20:59.862Z,31.58
2022-08-12T13:23:36.226Z,31.39
2022-08-12T13:26:14.318Z,31.38
2022-08-12T13:28:45.711Z,31.78
2022-08-12T13:31:24.950Z,31.78
2022-08-12T13:34:31.922Z,30.90
2022-08-12T13:36:47.394Z,30.98
2022-08-12T13:39:16.397Z,30.76
2022-08-12T13:41:44.916Z,30.62
2022-08-12T13:44:13.429Z,30.95
2022-08-12T13:46:42.475Z,30.99
2022-08-12T13:49:20.465Z,30.82
2022-08-12T13:52:03.544Z,31.66
2022-08-12T13:54:32.833Z,31.24
2022-08-12T13:57:01.698Z,31.53
2022-08-12T13:59:31.014Z,30.33
2022-08-12T14:02:18.324Z,31.49
2022-08-12T14:04:56.520Z,31.54
2022-08-12T14:07:27.496Z,31.95
2022-08-12T14:10:16.253Z,31.61
2022-08-12T14:12:54.740Z,32.08
2022-08-12T14:15:36.996Z,31.20
2022-08-12T14:18:13.665Z,31.82
2022-08-12T14:20:47.678Z,30.94
2022-08-12T14:24:08.045Z,31.65
2022-08-12T14:26:12.020Z,31.05
2022-08-12T14:28:45.472Z,32.10
2022-08-12T14:31:31.366Z,32.22
2022-08-12T14:34:04.799Z,31.58
2022-08-12T14:36:33.298Z,31.78
2022-08-12T14:39:06.023Z,32.04
2022-08-12T14:41:37.002Z,31.90
2022-08-12T14:44:59.859Z,31.39
2022-08-12T14:47:08.076Z,31.53
2022-08-12T14:50:33.461Z,30.96
2022-08-12T14:53:04.495Z,31.11
2022-08-12T14:58:04.334Z,30.15
2022-08-12T15:00:53.529Z,31.28
2022-08-12T15:03:46.672Z,31.89
2022-08-12T15:06:43.509Z,32.35
2022-08-12T15:09:12.098Z,32.34
2022-08-12T15:11:54.758Z,31.91
2022-08-12T15:14:25.668Z,31.78
2022-08-12T15:16:54.727Z,30.95
2022-08-12T15:20:11.986Z,30.65
2022-08-12T15:22:37.299Z,30.93
2022-08-12T15:24:59.703Z,29.78
2022-08-12T15:28:03.247Z,30.13
2022-08-12T15:30:22.626Z,30.30
2022-08-12T15:32:53.513Z,29.91
2022-08-12T15:35:22.006Z,30.08
2022-08-12T15:38:10.095Z,29.67
2022-08-12T15:40:48.481Z,28.97
2022-08-12T15:43:51.083Z,29.31
2022-08-12T15:46:15.383Z,28.73
2022-08-12T15:48:47.087Z,28.93
2022-08-12T15:51:59.324Z,28.99
2022-08-12T15:54:34.114Z,28.59
2022-08-12T15:57:07.612Z,28.46
2022-08-12T16:00:00.197Z,28.46
2022-08-12T16:02:29.623Z,28.75
2022-08-12T16:04:58.754Z,27.88
2022-08-12T16:07:31.066Z,28.31
2022-08-12T16:10:10.517Z,28.57
2022-08-12T16:12:41.942Z,28.68
2022-08-12T16:15:15.938Z,28.16
2022-08-12T16:18:18.730Z,28.75
2022-08-12T16:20:39.612Z,28.76
2022-08-12T16:23:26.401Z,28.97
2022-08-12T16:26:05.202Z,28.49
2022-08-12T16:28:42.627Z,28.13
2022-08-12T16:31:18.698Z,28.89
2022-08-12T16:33:56.392Z,29.12
2022-08-12T16:36:28.369Z,28.50
2022-08-12T16:38:56.720Z,28.96
2022-08-12T16:41:25.648Z,29.29
2022-08-12T16:43:56.683Z,29.05
2022-08-12T16:46:32.436Z,29.26
2022-08-12T16:49:08.548Z,29.20
2022-08-12T16:51:46.118Z,29.06
2022-08-12T16:54:17.075Z,28.74
2022-08-12T16:56:55.457Z,28.45
2022-08-12T16:59:31.006Z,27.87
2022-08-12T17:02:34.121Z,28.52
2022-08-12T17:05:04.229Z,28.82
2022-08-12T17:07:36.864Z,29.28
2022-08-12T17:10:06.718Z,29.20
2022-08-12T17:12:37.601Z,29.25
2022-08-12T17:15:50.141Z,28.70
2022-08-12T17:18:38.818Z,27.98
2022-08-12T17:20:48.535Z,29.10
2022-08-12T17:23:19.465Z,29.73
2022-08-12T17:25:50.246Z,29.34
2022-08-12T17:28:20.177Z,29.90
2022-08-12T17:30:57.472Z,30.12
2022-08-12T17:33:33.537Z,30.47
2022-08-12T17:36:05.688Z,30.97
2022-08-12T17:38:35.681Z,30.72
2022-08-12T17:41:22.774Z,30.95
2022-08-12T17:43:58.729Z,30.03
2022-08-12T17:46:33.610Z,30.45
2022-08-12T17:49:06.603Z,29.69
2022-08-12T17:52:02.082Z,30.02
2022-08-12T17:54:31.752Z,30.32
2022-08-12T17:57:02.557Z,29.95
2022-08-12T17:59:47.711Z,30.26
2022-08-12T18:02:19.409Z,30.11
2022-08-12T18:05:05.417Z,30.19
2022-08-12T18:07:39.236Z,29.69
2022-08-12T18:10:08.720Z,29.91
2022-08-12T18:12:42.787Z,28.97
2022-08-12T18:15:26.241Z,29.06
2022-08-12T18:18:16.524Z,28.58
2022-08-12T18:20:46.663Z,28.21
2022-08-12T18:23:15.034Z,27.89
2022-08-12T18:26:15.274Z,27.31
2022-08-12T18:28:48.161Z,27.65
2022-08-12T18:31:18.509Z,27.12
2022-08-12T18:33:47.992Z,27.08
2022-08-12T18:36:22.040Z,26.52
2022-08-12T18:38:53.082Z,26.78
2022-08-12T18:41:34.238Z,26.78
2022-08-12T18:44:08.149Z,26.43
2022-08-12T18:46:53.770Z,26.46
2022-08-12T18:49:30.720Z,26.23
2022-08-12T18:52:05.249Z,26.21
2022-08-12T18:54:36.041Z,26.05
2022-08-12T18:57:19.269Z,26.09
2022-08-12T19:00:00.709Z,26.15
2022-08-12T19:02:36.178Z,25.87
2022-08-12T19:05:09.854Z,25.82
2022-08-12T19:07:49.337Z,25.76
2022-08-12T19:10:23.097Z,25.68
2022-08-12T19:13:10.582Z,25.73
2022-08-12T19:15:42.359Z,25.60
2022-08-12T19:18:12.454Z,25.69
2022-08-12T19:20:42.050Z,25.47
2022-08-12T19:23:21.114Z,25.19
2022-08-12T19:26:00.373Z,25.21
2022-08-12T19:28:35.714Z,25.32
2022-08-12T19:31:55.733Z,25.25
2022-08-12T19:34:56.378Z,25.18
2022-08-12T19:37:20.136Z,25.13
2022-08-12T19:40:09.317Z,25.10
2022-08-12T19:42:44.491Z,24.93
2022-08-12T19:45:14.013Z,25.01
2022-08-12T19:47:46.695Z,24.86
2022-08-12T19:50:19.621Z,24.65
2022-08-12T19:52:51.019Z,24.71
2022-08-12T19:55:21.837Z,24.89
2022-08-12T19:58:02.455Z,24.73
2022-08-12T20:00:34.572Z,24.53
2022-08-12T20:03:06.166Z,24.52
2022-08-12T20:06:05.766Z,24.54
2022-08-12T20:08:33.993Z,24.21
2022-08-12T20:12:14.050Z,24.40
2022-08-12T20:14:00.202Z,24.39
2022-08-12T20:17:01.695Z,24.39
2022-08-12T20:19:28.480Z,24.22
2022-08-12T20:22:24.478Z,24.60
2022-08-12T20:25:01.348Z,24.63
2022-08-12T20:28:02.427Z,24.58
2022-08-12T20:30:37.895Z,24.51
2022-08-12T20:33:18.585Z,24.32
2022-08-12T20:36:13.446Z,24.15
2022-08-12T20:38:46.067Z,24.21
2022-08-12T20:41:17.532Z,24.08
2022-08-12T20:43:50.749Z,24.10
2022-08-12T20:46:21.151Z,23.92
2022-08-12T20:48:54.535Z,23.73
2022-08-12T20:51:23.836Z,23.72
2022-08-12T20:53:58.737Z,23.64
2022-08-12T20:56:34.833Z,23.62
2022-08-12T20:59:06.711Z,23.19
2022-08-12T21:01:47.105Z,23.40
2022-08-12T21:04:35.134Z,23.41
2022-08-12T21:07:09.157Z,23.40
2022-08-12T21:09:41.950Z,23.48
2022-08-12T21:12:28.437Z,23.29
2022-08-12T21:15:24.127Z,23.16
2022-08-12T21:18:15.500Z,22.87
2022-08-12T21:20:52.704Z,23.10
2022-08-12T21:23:22.608Z,22.86
2022-08-12T21:25:52.566Z,22.92
2022-08-12T21:28:31.257Z,23.06
2022-08-12T21:32:35.510Z,23.08
2022-08-12T21:34:08.002Z,22.96
2022-08-12T21:36:39.739Z,22.73
2022-08-12T21:39:20.710Z,23.01
2022-08-12T21:41:52.275Z,22.74
2022-08-12T21:45:43.459Z,23.17
2022-08-12T21:47:21.384Z,23.04
2022-08-12T21:50:03.236Z,22.81
2022-08-12T21:52:37.058Z,22.63
2022-08-12T21:55:08.043Z,22.09
2022-08-12T21:57:50.672Z,22.12
2022-08-12T22:00:23.899Z,22.18
2022-08-12T22:04:04.305Z,22.02
2022-08-12T22:06:30.893Z,22.13
2022-08-12T22:09:15.357Z,22.00
2022-08-12T22:11:49.342Z,21.93
2022-08-12T22:14:28.599Z,22.07
2022-08-12T22:16:58.194Z,22.00
2022-08-12T22:19:27.883Z,21.91
2022-08-12T22:21:58.402Z,21.79
2022-08-12T22:24:30.024Z,21.75
2022-08-12T22:27:17.947Z,21.62
2022-08-12T22:30:06.163Z,21.56
2022-08-12T22:32:38.673Z,21.44
2022-08-12T22:35:29.132Z,21.45
2022-08-12T22:37:58.895Z,21.52
2022-08-12T22:40:27.152Z,21.53
2022-08-12T22:43:15.280Z,21.48
2022-08-12T22:46:01.498Z,21.36
2022-08-12T22:48:30.636Z,21.26
2022-08-12T22:51:00.525Z,20.81
2022-08-12T22:53:35.884Z,21.14
2022-08-12T22:56:08.083Z,20.92
2022-08-12T22:58:40.423Z,20.67
2022-08-12T23:01:10.813Z,20.74
2022-08-12T23:03:47.050Z,20.76
2022-08-12T23:06:23.162Z,20.62
2022-08-12T23:08:52.031Z,20.61
2022-08-12T23:11:23.963Z,20.82
2022-08-12T23:13:56.939Z,20.53
2022-08-12T23:16:31.816Z,20.44
2022-08-12T23:19:10.638Z,20.62
2022-08-12T23:22:05.471Z,20.92
2022-08-12T23:24:56.281Z,21.09
2022-08-12T23:27:52.316Z,21.01
2022-08-12T23:30:31.676Z,21.17
2022-08-12T23:33:01.586Z,21.25
2022-08-12T23:35:45.540Z,21.24
2022-08-12T23:38:31.638Z,21.09
2022-08-12T23:41:01.895Z,21.08
2022-08-12T23:43:38.861Z,21.13
2022-08-12T23:46:10.559Z,20.82
2022-08-12T23:48:40.088Z,20.67
2022-08-12T23:51:21.518Z,20.88
2022-08-12T23:53:55.190Z,21.03
2022-08-12T23:56:24.726Z,21.08
2022-08-12T23:58:55.084Z,20.89
